sensor_id;sensor_type;location;lat;lon;timestamp;temperature;humidity
37702;DHT22;23548;51.196;6.838;2024-02-26T00:00:37;7.70;99.90
37702;DHT22;23548;51.196;6.838;2024-02-26T00:03:03;7.80;99.90
37702;DHT22;23548;51.196;6.838;2024-02-26T00:05:28;7.80;99.90
37702;DHT22;23548;51.196;6.838;2024-02-26T00:07:54;7.80;99.90
37702;DHT22;23548;51.196;6.838;2024-02-26T00:10:20;7.80;99.90
37702;DHT22;23548;51.196;6.838;2024-02-26T00:12:45;7.80;99.90
37702;DHT22;23548;51.196;6.838;2024-02-26T00:15:11;7.80;99.90
37702;DHT22;23548;51.196;6.838;2024-02-26T00:17:37;7.70;99.90
37702;DHT22;23548;51.196;6.838;2024-02-26T00:20:04;7.70;99.90
37702;DHT22;23548;51.196;6.838;2024-02-26T00:22:33;7.80;99.90
37702;DHT22;23548;51.196;6.838;2024-02-26T00:24:59;7.80;99.90
37702;DHT22;23548;51.196;6.838;2024-02-26T00:27:25;7.70;99.90
37702;DHT22;23548;51.196;6.838;2024-02-26T00:29:51;7.70;99.90
37702;DHT22;23548;51.196;6.838;2024-02-26T00:32:17;7.70;99.90
37702;DHT22;23548;51.196;6.838;2024-02-26T00:34:43;7.70;99.90
37702;DHT22;23548;51.196;6.838;2024-02-26T00:37:09;7.60;99.90
37702;DHT22;23548;51.196;6.838;2024-02-26T00:39:35;7.70;99.90
37702;DHT22;23548;51.196;6.838;2024-02-26T00:42:01;7.70;99.90
37702;DHT22;23548;51.196;6.838;2024-02-26T00:44:26;7.70;99.90
37702;DHT22;23548;51.196;6.838;2024-02-26T00:46:52;7.70;99.90
37702;DHT22;23548;51.196;6.838;2024-02-26T00:49:18;7.70;99.90
37702;DHT22;23548;51.196;6.838;2024-02-26T00:51:44;7.60;99.90
37702;DHT22;23548;51.196;6.838;2024-02-26T00:54:10;7.60;99.90
37702;DHT22;23548;51.196;6.838;2024-02-26T00:56:35;7.60;99.90
37702;DHT22;23548;51.196;6.838;2024-02-26T00:59:01;7.60;99.90
37702;DHT22;23548;51.196;6.838;2024-02-26T01:01:27;7.60;99.90
37702;DHT22;23548;51.196;6.838;2024-02-26T01:03:52;7.60;99.90
37702;DHT22;23548;51.196;6.838;2024-02-26T01:06:18;7.60;99.90
37702;DHT22;23548;51.196;6.838;2024-02-26T01:08:44;7.70;99.90
37702;DHT22;23548;51.196;6.838;2024-02-26T01:11:10;7.70;99.90
37702;DHT22;23548;51.196;6.838;2024-02-26T01:13:36;7.70;99.90
37702;DHT22;23548;51.196;6.838;2024-02-26T01:16:02;7.80;99.90
37702;DHT22;23548;51.196;6.838;2024-02-26T01:18:28;7.80;99.90
37702;DHT22;23548;51.196;6.838;2024-02-26T01:20:53;7.80;99.90
37702;DHT22;23548;51.196;6.838;2024-02-26T01:23:20;7.90;99.90
37702;DHT22;23548;51.196;6.838;2024-02-26T01:25:46;7.90;99.90
37702;DHT22;23548;51.196;6.838;2024-02-26T01:28:12;8.00;99.90
37702;DHT22;23548;51.196;6.838;2024-02-26T01:30:37;8.00;99.90
37702;DHT22;23548;51.196;6.838;2024-02-26T01:33:03;8.00;99.90
37702;DHT22;23548;51.196;6.838;2024-02-26T01:35:29;8.00;99.90
37702;DHT22;23548;51.196;6.838;2024-02-26T01:37:55;8.00;99.90
37702;DHT22;23548;51.196;6.838;2024-02-26T01:40:21;7.90;99.90
37702;DHT22;23548;51.196;6.838;2024-02-26T01:42:47;7.80;99.90
37702;DHT22;23548;51.196;6.838;2024-02-26T01:45:17;7.70;99.90
37702;DHT22;23548;51.196;6.838;2024-02-26T01:47:51;7.70;99.90
37702;DHT22;23548;51.196;6.838;2024-02-26T01:50:18;7.60;99.90
37702;DHT22;23548;51.196;6.838;2024-02-26T01:52:49;7.50;99.90
37702;DHT22;23548;51.196;6.838;2024-02-26T01:55:15;7.50;99.90
37702;DHT22;23548;51.196;6.838;2024-02-26T01:57:43;7.30;99.90
37702;DHT22;23548;51.196;6.838;2024-02-26T02:00:09;7.20;99.90
37702;DHT22;23548;51.196;6.838;2024-02-26T02:02:36;7.20;99.90
37702;DHT22;23548;51.196;6.838;2024-02-26T02:05:02;7.20;99.90
37702;DHT22;23548;51.196;6.838;2024-02-26T02:07:29;7.30;99.90
37702;DHT22;23548;51.196;6.838;2024-02-26T02:09:55;7.10;99.90
37702;DHT22;23548;51.196;6.838;2024-02-26T02:12:21;7.00;99.90
37702;DHT22;23548;51.196;6.838;2024-02-26T02:14:47;7.10;99.90
37702;DHT22;23548;51.196;6.838;2024-02-26T02:17:14;7.10;99.90
37702;DHT22;23548;51.196;6.838;2024-02-26T02:19:39;7.10;99.90
37702;DHT22;23548;51.196;6.838;2024-02-26T02:22:05;7.00;99.90
37702;DHT22;23548;51.196;6.838;2024-02-26T02:24:31;7.00;99.90
37702;DHT22;23548;51.196;6.838;2024-02-26T02:26:56;7.00;99.90
37702;DHT22;23548;51.196;6.838;2024-02-26T02:29:22;7.00;99.90
37702;DHT22;23548;51.196;6.838;2024-02-26T02:31:49;7.00;99.90
37702;DHT22;23548;51.196;6.838;2024-02-26T02:34:15;6.90;99.90
37702;DHT22;23548;51.196;6.838;2024-02-26T02:36:52;6.90;99.90
37702;DHT22;23548;51.196;6.838;2024-02-26T02:39:18;7.00;99.90
37702;DHT22;23548;51.196;6.838;2024-02-26T02:41:44;7.00;99.90
37702;DHT22;23548;51.196;6.838;2024-02-26T02:44:10;7.00;99.90
37702;DHT22;23548;51.196;6.838;2024-02-26T02:49:55;6.90;99.90
37702;DHT22;23548;51.196;6.838;2024-02-26T02:52:21;6.90;99.90
37702;DHT22;23548;51.196;6.838;2024-02-26T02:54:46;6.80;99.90
37702;DHT22;23548;51.196;6.838;2024-02-26T02:57:12;6.70;99.90
37702;DHT22;23548;51.196;6.838;2024-02-26T02:59:39;6.80;99.90
37702;DHT22;23548;51.196;6.838;2024-02-26T03:02:05;6.80;99.90
37702;DHT22;23548;51.196;6.838;2024-02-26T03:04:32;6.80;99.90
37702;DHT22;23548;51.196;6.838;2024-02-26T03:06:58;6.70;99.90
37702;DHT22;23548;51.196;6.838;2024-02-26T03:09:23;6.80;99.90
37702;DHT22;23548;51.196;6.838;2024-02-26T03:11:49;6.80;99.90
37702;DHT22;23548;51.196;6.838;2024-02-26T03:14:15;6.80;99.90
37702;DHT22;23548;51.196;6.838;2024-02-26T03:16:41;6.80;99.90
37702;DHT22;23548;51.196;6.838;2024-02-26T03:19:07;6.80;99.90
37702;DHT22;23548;51.196;6.838;2024-02-26T03:21:33;6.80;99.90
37702;DHT22;23548;51.196;6.838;2024-02-26T03:23:59;6.70;99.90
37702;DHT22;23548;51.196;6.838;2024-02-26T03:26:24;6.70;99.90
37702;DHT22;23548;51.196;6.838;2024-02-26T03:28:50;6.70;99.90
37702;DHT22;23548;51.196;6.838;2024-02-26T03:31:16;6.70;99.90
37702;DHT22;23548;51.196;6.838;2024-02-26T03:33:42;6.70;99.90
37702;DHT22;23548;51.196;6.838;2024-02-26T03:36:08;6.70;99.90
37702;DHT22;23548;51.196;6.838;2024-02-26T03:38:33;6.80;99.90
37702;DHT22;23548;51.196;6.838;2024-02-26T03:40:59;6.70;99.90
37702;DHT22;23548;51.196;6.838;2024-02-26T03:43:25;6.70;99.90
37702;DHT22;23548;51.196;6.838;2024-02-26T03:45:51;6.70;99.90
37702;DHT22;23548;51.196;6.838;2024-02-26T03:48:16;6.70;99.90
37702;DHT22;23548;51.196;6.838;2024-02-26T03:50:42;6.70;99.90
37702;DHT22;23548;51.196;6.838;2024-02-26T03:53:08;6.70;99.90
37702;DHT22;23548;51.196;6.838;2024-02-26T03:55:35;6.60;99.90
37702;DHT22;23548;51.196;6.838;2024-02-26T03:58:00;6.60;99.90
37702;DHT22;23548;51.196;6.838;2024-02-26T04:00:26;6.60;99.90
37702;DHT22;23548;51.196;6.838;2024-02-26T04:02:54;6.70;99.90
37702;DHT22;23548;51.196;6.838;2024-02-26T04:05:20;6.60;99.90
37702;DHT22;23548;51.196;6.838;2024-02-26T04:07:45;6.70;99.90
37702;DHT22;23548;51.196;6.838;2024-02-26T04:10:12;6.70;99.90
37702;DHT22;23548;51.196;6.838;2024-02-26T04:12:41;6.60;99.90
37702;DHT22;23548;51.196;6.838;2024-02-26T04:15:08;6.70;99.90
37702;DHT22;23548;51.196;6.838;2024-02-26T04:17:36;6.70;99.90
37702;DHT22;23548;51.196;6.838;2024-02-26T04:20:03;6.60;99.90
37702;DHT22;23548;51.196;6.838;2024-02-26T04:22:29;6.60;99.90
37702;DHT22;23548;51.196;6.838;2024-02-26T04:24:54;6.70;99.90
37702;DHT22;23548;51.196;6.838;2024-02-26T04:27:20;6.70;99.90
37702;DHT22;23548;51.196;6.838;2024-02-26T04:29:46;6.70;99.90
37702;DHT22;23548;51.196;6.838;2024-02-26T04:32:12;6.70;99.90
37702;DHT22;23548;51.196;6.838;2024-02-26T04:34:37;6.50;99.90
37702;DHT22;23548;51.196;6.838;2024-02-26T04:37:03;6.50;99.90
37702;DHT22;23548;51.196;6.838;2024-02-26T04:39:29;6.50;99.90
37702;DHT22;23548;51.196;6.838;2024-02-26T04:41:54;6.60;99.90
37702;DHT22;23548;51.196;6.838;2024-02-26T04:44:20;6.50;99.90
37702;DHT22;23548;51.196;6.838;2024-02-26T04:46:46;6.60;99.90
37702;DHT22;23548;51.196;6.838;2024-02-26T04:49:12;6.60;99.90
37702;DHT22;23548;51.196;6.838;2024-02-26T04:51:37;6.50;99.90
37702;DHT22;23548;51.196;6.838;2024-02-26T04:54:03;6.40;99.90
37702;DHT22;23548;51.196;6.838;2024-02-26T04:56:29;6.30;99.90
37702;DHT22;23548;51.196;6.838;2024-02-26T04:58:54;6.30;99.90
37702;DHT22;23548;51.196;6.838;2024-02-26T05:01:20;6.30;99.90
37702;DHT22;23548;51.196;6.838;2024-02-26T05:03:46;6.20;99.90
37702;DHT22;23548;51.196;6.838;2024-02-26T05:06:12;6.20;99.90
37702;DHT22;23548;51.196;6.838;2024-02-26T05:08:38;6.10;99.90
37702;DHT22;23548;51.196;6.838;2024-02-26T05:11:04;6.10;99.90
37702;DHT22;23548;51.196;6.838;2024-02-26T05:13:30;6.00;99.90
37702;DHT22;23548;51.196;6.838;2024-02-26T05:15:56;6.10;99.90
37702;DHT22;23548;51.196;6.838;2024-02-26T05:18:22;6.10;99.90
37702;DHT22;23548;51.196;6.838;2024-02-26T05:20:48;6.00;99.90
37702;DHT22;23548;51.196;6.838;2024-02-26T05:23:13;6.10;99.90
37702;DHT22;23548;51.196;6.838;2024-02-26T05:25:39;6.10;99.90
37702;DHT22;23548;51.196;6.838;2024-02-26T05:28:05;6.00;99.90
37702;DHT22;23548;51.196;6.838;2024-02-26T05:30:31;6.00;99.90
37702;DHT22;23548;51.196;6.838;2024-02-26T05:32:57;6.10;99.90
37702;DHT22;23548;51.196;6.838;2024-02-26T05:35:22;6.10;99.90
37702;DHT22;23548;51.196;6.838;2024-02-26T05:37:48;6.10;99.90
37702;DHT22;23548;51.196;6.838;2024-02-26T05:40:14;6.10;99.90
37702;DHT22;23548;51.196;6.838;2024-02-26T05:42:40;6.10;99.90
37702;DHT22;23548;51.196;6.838;2024-02-26T05:45:06;6.20;99.90
37702;DHT22;23548;51.196;6.838;2024-02-26T05:47:35;6.20;99.90
37702;DHT22;23548;51.196;6.838;2024-02-26T05:50:02;6.10;99.90
37702;DHT22;23548;51.196;6.838;2024-02-26T05:52:28;6.00;99.90
37702;DHT22;23548;51.196;6.838;2024-02-26T05:54:57;6.00;99.90
37702;DHT22;23548;51.196;6.838;2024-02-26T05:57:22;6.10;99.90
37702;DHT22;23548;51.196;6.838;2024-02-26T05:59:48;6.00;99.90
37702;DHT22;23548;51.196;6.838;2024-02-26T06:02:14;5.90;99.90
37702;DHT22;23548;51.196;6.838;2024-02-26T06:04:40;5.90;99.90
37702;DHT22;23548;51.196;6.838;2024-02-26T06:07:05;6.00;99.90
37702;DHT22;23548;51.196;6.838;2024-02-26T06:09:32;5.90;99.90
37702;DHT22;23548;51.196;6.838;2024-02-26T06:11:58;5.90;99.90
37702;DHT22;23548;51.196;6.838;2024-02-26T06:14:24;6.00;99.90
37702;DHT22;23548;51.196;6.838;2024-02-26T06:16:50;5.90;99.90
37702;DHT22;23548;51.196;6.838;2024-02-26T06:19:15;5.90;99.90
37702;DHT22;23548;51.196;6.838;2024-02-26T06:21:41;6.00;99.90
37702;DHT22;23548;51.196;6.838;2024-02-26T06:24:07;5.90;99.90
37702;DHT22;23548;51.196;6.838;2024-02-26T06:26:33;5.90;99.90
37702;DHT22;23548;51.196;6.838;2024-02-26T06:28:59;6.00;99.90
37702;DHT22;23548;51.196;6.838;2024-02-26T06:31:24;6.00;99.90
37702;DHT22;23548;51.196;6.838;2024-02-26T06:33:53;6.00;99.90
37702;DHT22;23548;51.196;6.838;2024-02-26T06:36:19;5.90;99.90
37702;DHT22;23548;51.196;6.838;2024-02-26T06:38:45;6.00;99.90
37702;DHT22;23548;51.196;6.838;2024-02-26T06:41:10;5.90;99.90
37702;DHT22;23548;51.196;6.838;2024-02-26T06:43:37;5.90;99.90
37702;DHT22;23548;51.196;6.838;2024-02-26T06:46:02;6.00;99.90
37702;DHT22;23548;51.196;6.838;2024-02-26T06:48:28;6.00;99.90
37702;DHT22;23548;51.196;6.838;2024-02-26T06:50:54;6.00;99.90
37702;DHT22;23548;51.196;6.838;2024-02-26T06:53:19;5.90;99.90
37702;DHT22;23548;51.196;6.838;2024-02-26T06:55:45;5.90;99.90
37702;DHT22;23548;51.196;6.838;2024-02-26T06:58:11;5.80;99.90
37702;DHT22;23548;51.196;6.838;2024-02-26T07:00:37;5.90;99.90
37702;DHT22;23548;51.196;6.838;2024-02-26T07:03:02;5.80;99.90
37702;DHT22;23548;51.196;6.838;2024-02-26T07:05:28;5.80;99.90
37702;DHT22;23548;51.196;6.838;2024-02-26T07:07:54;5.80;99.90
37702;DHT22;23548;51.196;6.838;2024-02-26T07:10:20;5.90;99.90
37702;DHT22;23548;51.196;6.838;2024-02-26T07:12:46;5.90;99.90
37702;DHT22;23548;51.196;6.838;2024-02-26T07:15:12;5.90;99.90
37702;DHT22;23548;51.196;6.838;2024-02-26T07:17:38;5.90;99.90
37702;DHT22;23548;51.196;6.838;2024-02-26T07:20:08;6.00;99.90
37702;DHT22;23548;51.196;6.838;2024-02-26T07:22:34;5.80;99.90
37702;DHT22;23548;51.196;6.838;2024-02-26T07:24:59;5.80;99.90
37702;DHT22;23548;51.196;6.838;2024-02-26T07:27:25;5.80;99.90
37702;DHT22;23548;51.196;6.838;2024-02-26T07:29:51;5.90;99.90
37702;DHT22;23548;51.196;6.838;2024-02-26T07:32:16;5.90;99.90
37702;DHT22;23548;51.196;6.838;2024-02-26T07:34:42;5.90;99.90
37702;DHT22;23548;51.196;6.838;2024-02-26T07:37:10;5.90;99.90
37702;DHT22;23548;51.196;6.838;2024-02-26T07:39:36;5.90;99.90
37702;DHT22;23548;51.196;6.838;2024-02-26T07:42:02;5.90;99.90
37702;DHT22;23548;51.196;6.838;2024-02-26T07:44:28;5.90;99.90
37702;DHT22;23548;51.196;6.838;2024-02-26T07:46:54;6.10;99.90
37702;DHT22;23548;51.196;6.838;2024-02-26T07:49:20;6.20;99.90
37702;DHT22;23548;51.196;6.838;2024-02-26T07:51:46;6.20;99.90
37702;DHT22;23548;51.196;6.838;2024-02-26T07:54:11;6.10;99.90
37702;DHT22;23548;51.196;6.838;2024-02-26T07:56:37;6.10;99.90
37702;DHT22;23548;51.196;6.838;2024-02-26T07:59:03;6.00;99.90
37702;DHT22;23548;51.196;6.838;2024-02-26T08:01:29;6.10;99.90
37702;DHT22;23548;51.196;6.838;2024-02-26T08:03:55;6.10;99.90
37702;DHT22;23548;51.196;6.838;2024-02-26T08:06:21;6.10;99.90
37702;DHT22;23548;51.196;6.838;2024-02-26T08:08:47;6.10;99.90
37702;DHT22;23548;51.196;6.838;2024-02-26T08:11:14;6.10;99.90
37702;DHT22;23548;51.196;6.838;2024-02-26T08:13:41;6.20;99.90
37702;DHT22;23548;51.196;6.838;2024-02-26T08:16:07;6.20;99.90
37702;DHT22;23548;51.196;6.838;2024-02-26T08:18:33;6.10;99.90
37702;DHT22;23548;51.196;6.838;2024-02-26T08:20:58;6.20;99.90
37702;DHT22;23548;51.196;6.838;2024-02-26T08:23:24;6.20;99.90
37702;DHT22;23548;51.196;6.838;2024-02-26T08:25:51;6.30;99.90
37702;DHT22;23548;51.196;6.838;2024-02-26T08:28:17;6.40;99.90
37702;DHT22;23548;51.196;6.838;2024-02-26T08:30:43;6.30;99.90
37702;DHT22;23548;51.196;6.838;2024-02-26T08:33:10;6.40;99.90
37702;DHT22;23548;51.196;6.838;2024-02-26T08:35:36;6.40;99.90
37702;DHT22;23548;51.196;6.838;2024-02-26T08:38:02;6.40;99.90
37702;DHT22;23548;51.196;6.838;2024-02-26T08:40:29;6.40;99.90
37702;DHT22;23548;51.196;6.838;2024-02-26T08:42:55;6.50;99.90
37702;DHT22;23548;51.196;6.838;2024-02-26T08:45:21;6.50;99.90
37702;DHT22;23548;51.196;6.838;2024-02-26T08:47:47;6.60;99.90
37702;DHT22;23548;51.196;6.838;2024-02-26T08:50:14;6.70;99.90
37702;DHT22;23548;51.196;6.838;2024-02-26T08:52:40;6.60;99.90
37702;DHT22;23548;51.196;6.838;2024-02-26T08:55:06;6.60;99.90
37702;DHT22;23548;51.196;6.838;2024-02-26T08:57:34;6.60;99.90
37702;DHT22;23548;51.196;6.838;2024-02-26T09:00:03;6.60;99.90
37702;DHT22;23548;51.196;6.838;2024-02-26T09:02:29;6.60;99.90
37702;DHT22;23548;51.196;6.838;2024-02-26T09:04:54;6.60;99.90
37702;DHT22;23548;51.196;6.838;2024-02-26T09:07:21;6.70;99.90
37702;DHT22;23548;51.196;6.838;2024-02-26T09:09:47;6.70;99.90
37702;DHT22;23548;51.196;6.838;2024-02-26T09:12:13;6.70;99.90
37702;DHT22;23548;51.196;6.838;2024-02-26T09:14:39;6.70;99.90
37702;DHT22;23548;51.196;6.838;2024-02-26T09:17:04;6.70;99.90
37702;DHT22;23548;51.196;6.838;2024-02-26T09:19:31;6.60;99.90
37702;DHT22;23548;51.196;6.838;2024-02-26T09:21:57;6.70;99.90
37702;DHT22;23548;51.196;6.838;2024-02-26T09:24:24;6.70;99.90
37702;DHT22;23548;51.196;6.838;2024-02-26T09:26:50;6.80;99.90
37702;DHT22;23548;51.196;6.838;2024-02-26T09:29:16;6.70;99.90
37702;DHT22;23548;51.196;6.838;2024-02-26T09:31:42;6.70;99.90
37702;DHT22;23548;51.196;6.838;2024-02-26T09:34:09;6.70;99.90
37702;DHT22;23548;51.196;6.838;2024-02-26T09:36:34;6.80;99.90
37702;DHT22;23548;51.196;6.838;2024-02-26T09:39:00;6.80;99.90
37702;DHT22;23548;51.196;6.838;2024-02-26T09:41:28;6.70;99.90
37702;DHT22;23548;51.196;6.838;2024-02-26T09:43:57;6.60;99.90
37702;DHT22;23548;51.196;6.838;2024-02-26T09:46:25;6.70;99.90
37702;DHT22;23548;51.196;6.838;2024-02-26T09:48:51;6.80;99.90
37702;DHT22;23548;51.196;6.838;2024-02-26T09:51:17;6.90;99.90
37702;DHT22;23548;51.196;6.838;2024-02-26T09:53:44;7.00;99.90
37702;DHT22;23548;51.196;6.838;2024-02-26T09:56:12;6.90;99.90
37702;DHT22;23548;51.196;6.838;2024-02-26T09:58:39;7.00;99.90
37702;DHT22;23548;51.196;6.838;2024-02-26T10:01:11;6.70;99.90
37702;DHT22;23548;51.196;6.838;2024-02-26T10:03:40;6.80;99.90
37702;DHT22;23548;51.196;6.838;2024-02-26T10:06:08;6.80;99.90
37702;DHT22;23548;51.196;6.838;2024-02-26T10:08:35;6.80;99.90
37702;DHT22;23548;51.196;6.838;2024-02-26T10:11:03;6.90;99.90
37702;DHT22;23548;51.196;6.838;2024-02-26T10:13:28;7.00;99.90
37702;DHT22;23548;51.196;6.838;2024-02-26T10:15:54;7.10;99.90
37702;DHT22;23548;51.196;6.838;2024-02-26T10:18:20;7.10;99.90
37702;DHT22;23548;51.196;6.838;2024-02-26T10:21:01;7.10;99.90
37702;DHT22;23548;51.196;6.838;2024-02-26T10:23:27;7.00;99.90
37702;DHT22;23548;51.196;6.838;2024-02-26T10:25:54;7.20;99.90
37702;DHT22;23548;51.196;6.838;2024-02-26T10:28:20;7.10;99.90
37702;DHT22;23548;51.196;6.838;2024-02-26T10:30:46;7.10;99.90
37702;DHT22;23548;51.196;6.838;2024-02-26T10:33:12;7.10;99.90
37702;DHT22;23548;51.196;6.838;2024-02-26T10:35:50;7.40;99.90
37702;DHT22;23548;51.196;6.838;2024-02-26T10:38:16;7.50;99.90
37702;DHT22;23548;51.196;6.838;2024-02-26T10:40:46;7.60;99.90
37702;DHT22;23548;51.196;6.838;2024-02-26T10:43:14;7.70;99.90
37702;DHT22;23548;51.196;6.838;2024-02-26T10:45:42;7.60;99.90
37702;DHT22;23548;51.196;6.838;2024-02-26T10:48:13;7.40;99.90
37702;DHT22;23548;51.196;6.838;2024-02-26T10:50:40;7.50;99.90
37702;DHT22;23548;51.196;6.838;2024-02-26T10:53:16;7.40;99.90
37702;DHT22;23548;51.196;6.838;2024-02-26T10:55:48;7.40;99.90
37702;DHT22;23548;51.196;6.838;2024-02-26T10:58:13;7.50;99.90
37702;DHT22;23548;51.196;6.838;2024-02-26T11:00:40;7.60;99.90
37702;DHT22;23548;51.196;6.838;2024-02-26T11:03:06;7.50;99.90
37702;DHT22;23548;51.196;6.838;2024-02-26T11:05:38;7.60;99.90
37702;DHT22;23548;51.196;6.838;2024-02-26T11:08:05;7.60;99.90
37702;DHT22;23548;51.196;6.838;2024-02-26T11:10:31;7.70;99.90
37702;DHT22;23548;51.196;6.838;2024-02-26T11:13:00;7.80;99.90
37702;DHT22;23548;51.196;6.838;2024-02-26T11:15:28;8.20;99.90
37702;DHT22;23548;51.196;6.838;2024-02-26T11:17:55;8.60;99.90
37702;DHT22;23548;51.196;6.838;2024-02-26T11:20:22;8.70;99.90
37702;DHT22;23548;51.196;6.838;2024-02-26T11:22:48;9.00;99.90
37702;DHT22;23548;51.196;6.838;2024-02-26T11:25:17;9.10;99.90
37702;DHT22;23548;51.196;6.838;2024-02-26T11:27:54;9.10;99.90
37702;DHT22;23548;51.196;6.838;2024-02-26T11:30:23;8.60;99.90
37702;DHT22;23548;51.196;6.838;2024-02-26T11:32:50;8.50;99.90
37702;DHT22;23548;51.196;6.838;2024-02-26T11:35:17;8.60;99.90
37702;DHT22;23548;51.196;6.838;2024-02-26T11:37:56;8.50;99.90
37702;DHT22;23548;51.196;6.838;2024-02-26T11:40:26;8.60;99.90
37702;DHT22;23548;51.196;6.838;2024-02-26T11:42:53;8.30;99.90
37702;DHT22;23548;51.196;6.838;2024-02-26T11:48:24;8.30;99.90
37702;DHT22;23548;51.196;6.838;2024-02-26T11:50:54;8.20;99.90
37702;DHT22;23548;51.196;6.838;2024-02-26T11:53:27;8.40;99.90
37702;DHT22;23548;51.196;6.838;2024-02-26T11:58:48;8.40;99.90
37702;DHT22;23548;51.196;6.838;2024-02-26T12:01:50;8.40;99.90
37702;DHT22;23548;51.196;6.838;2024-02-26T12:04:27;8.20;99.90
37702;DHT22;23548;51.196;6.838;2024-02-26T12:07:03;8.10;99.90
37702;DHT22;23548;51.196;6.838;2024-02-26T12:09:39;8.20;99.90
37702;DHT22;23548;51.196;6.838;2024-02-26T12:12:09;8.20;99.90
37702;DHT22;23548;51.196;6.838;2024-02-26T12:14:40;8.20;99.90
37702;DHT22;23548;51.196;6.838;2024-02-26T12:17:24;8.40;99.90
37702;DHT22;23548;51.196;6.838;2024-02-26T12:19:50;8.40;99.90
37702;DHT22;23548;51.196;6.838;2024-02-26T12:22:17;8.50;99.90
37702;DHT22;23548;51.196;6.838;2024-02-26T12:24:43;8.50;99.90
37702;DHT22;23548;51.196;6.838;2024-02-26T12:27:09;8.50;99.90
37702;DHT22;23548;51.196;6.838;2024-02-26T12:29:35;8.40;99.90
37702;DHT22;23548;51.196;6.838;2024-02-26T12:32:02;8.30;99.90
37702;DHT22;23548;51.196;6.838;2024-02-26T12:34:28;8.30;99.90
37702;DHT22;23548;51.196;6.838;2024-02-26T12:36:54;8.30;99.90
37702;DHT22;23548;51.196;6.838;2024-02-26T12:39:20;8.20;99.90
37702;DHT22;23548;51.196;6.838;2024-02-26T12:41:47;8.20;99.90
37702;DHT22;23548;51.196;6.838;2024-02-26T12:44:25;8.10;99.90
37702;DHT22;23548;51.196;6.838;2024-02-26T12:46:51;8.10;99.90
37702;DHT22;23548;51.196;6.838;2024-02-26T12:49:25;8.00;99.90
37702;DHT22;23548;51.196;6.838;2024-02-26T12:51:57;8.00;99.90
37702;DHT22;23548;51.196;6.838;2024-02-26T12:54:30;7.90;99.90
37702;DHT22;23548;51.196;6.838;2024-02-26T12:56:58;8.10;99.90
37702;DHT22;23548;51.196;6.838;2024-02-26T12:59:24;8.10;99.90
37702;DHT22;23548;51.196;6.838;2024-02-26T13:01:50;8.10;99.90
37702;DHT22;23548;51.196;6.838;2024-02-26T13:04:16;8.10;99.90
37702;DHT22;23548;51.196;6.838;2024-02-26T13:06:43;8.10;99.90
37702;DHT22;23548;51.196;6.838;2024-02-26T13:09:13;8.00;99.90
37702;DHT22;23548;51.196;6.838;2024-02-26T13:11:40;8.10;99.90
37702;DHT22;23548;51.196;6.838;2024-02-26T13:14:06;8.20;99.90
37702;DHT22;23548;51.196;6.838;2024-02-26T13:16:32;8.30;99.90
37702;DHT22;23548;51.196;6.838;2024-02-26T13:19:09;8.30;99.90
37702;DHT22;23548;51.196;6.838;2024-02-26T13:21:35;8.30;99.90
37702;DHT22;23548;51.196;6.838;2024-02-26T13:24:01;8.30;99.90
37702;DHT22;23548;51.196;6.838;2024-02-26T13:26:27;8.30;99.90
37702;DHT22;23548;51.196;6.838;2024-02-26T13:29:00;8.20;99.90
37702;DHT22;23548;51.196;6.838;2024-02-26T13:31:26;8.10;99.90
37702;DHT22;23548;51.196;6.838;2024-02-26T13:33:52;8.30;99.90
37702;DHT22;23548;51.196;6.838;2024-02-26T13:36:22;8.30;99.90
37702;DHT22;23548;51.196;6.838;2024-02-26T13:38:54;8.30;99.90
37702;DHT22;23548;51.196;6.838;2024-02-26T13:41:21;8.10;99.90
37702;DHT22;23548;51.196;6.838;2024-02-26T13:43:47;8.20;99.90
37702;DHT22;23548;51.196;6.838;2024-02-26T13:46:13;8.20;99.90
37702;DHT22;23548;51.196;6.838;2024-02-26T13:48:41;8.20;99.90
37702;DHT22;23548;51.196;6.838;2024-02-26T13:51:07;8.10;99.90
37702;DHT22;23548;51.196;6.838;2024-02-26T13:53:33;8.20;99.90
37702;DHT22;23548;51.196;6.838;2024-02-26T13:55:59;8.10;99.90
37702;DHT22;23548;51.196;6.838;2024-02-26T13:58:26;8.10;99.90
37702;DHT22;23548;51.196;6.838;2024-02-26T14:00:53;8.20;99.90
37702;DHT22;23548;51.196;6.838;2024-02-26T14:03:22;8.40;99.90
37702;DHT22;23548;51.196;6.838;2024-02-26T14:05:48;8.60;99.90
37702;DHT22;23548;51.196;6.838;2024-02-26T14:08:14;8.70;99.90
37702;DHT22;23548;51.196;6.838;2024-02-26T14:10:40;8.80;99.90
37702;DHT22;23548;51.196;6.838;2024-02-26T14:13:05;9.10;99.90
37702;DHT22;23548;51.196;6.838;2024-02-26T14:15:32;9.10;99.90
37702;DHT22;23548;51.196;6.838;2024-02-26T14:18:01;9.10;99.90
37702;DHT22;23548;51.196;6.838;2024-02-26T14:20:28;9.30;99.90
37702;DHT22;23548;51.196;6.838;2024-02-26T14:22:54;9.10;99.90
37702;DHT22;23548;51.196;6.838;2024-02-26T14:25:21;9.10;99.90
37702;DHT22;23548;51.196;6.838;2024-02-26T14:27:47;9.20;99.90
37702;DHT22;23548;51.196;6.838;2024-02-26T14:30:14;9.10;99.90
37702;DHT22;23548;51.196;6.838;2024-02-26T14:32:40;9.10;99.90
37702;DHT22;23548;51.196;6.838;2024-02-26T14:35:07;9.10;99.90
37702;DHT22;23548;51.196;6.838;2024-02-26T14:37:35;9.00;99.90
37702;DHT22;23548;51.196;6.838;2024-02-26T14:40:01;8.90;99.90
37702;DHT22;23548;51.196;6.838;2024-02-26T14:42:28;9.00;99.90
37702;DHT22;23548;51.196;6.838;2024-02-26T14:44:54;9.00;99.90
37702;DHT22;23548;51.196;6.838;2024-02-26T14:47:20;9.00;99.90
37702;DHT22;23548;51.196;6.838;2024-02-26T14:49:46;9.00;99.90
37702;DHT22;23548;51.196;6.838;2024-02-26T14:52:14;9.00;99.90
37702;DHT22;23548;51.196;6.838;2024-02-26T14:54:39;9.00;99.90
37702;DHT22;23548;51.196;6.838;2024-02-26T14:57:05;9.10;99.90
37702;DHT22;23548;51.196;6.838;2024-02-26T14:59:32;9.00;99.90
37702;DHT22;23548;51.196;6.838;2024-02-26T15:01:59;9.10;99.90
37702;DHT22;23548;51.196;6.838;2024-02-26T15:04:27;9.00;99.90
37702;DHT22;23548;51.196;6.838;2024-02-26T15:06:53;9.00;99.90
37702;DHT22;23548;51.196;6.838;2024-02-26T15:09:18;9.00;99.90
37702;DHT22;23548;51.196;6.838;2024-02-26T15:11:44;8.90;99.90
37702;DHT22;23548;51.196;6.838;2024-02-26T15:14:10;8.80;99.90
37702;DHT22;23548;51.196;6.838;2024-02-26T15:16:36;8.90;99.90
37702;DHT22;23548;51.196;6.838;2024-02-26T15:19:02;8.90;99.90
37702;DHT22;23548;51.196;6.838;2024-02-26T15:21:29;9.00;99.90
37702;DHT22;23548;51.196;6.838;2024-02-26T15:23:55;9.00;99.90
37702;DHT22;23548;51.196;6.838;2024-02-26T15:26:21;9.00;99.90
37702;DHT22;23548;51.196;6.838;2024-02-26T15:28:48;9.00;99.90
37702;DHT22;23548;51.196;6.838;2024-02-26T15:31:16;9.00;99.90
37702;DHT22;23548;51.196;6.838;2024-02-26T15:33:42;8.90;99.90
37702;DHT22;23548;51.196;6.838;2024-02-26T15:36:08;8.80;99.90
37702;DHT22;23548;51.196;6.838;2024-02-26T15:38:38;8.80;99.90
37702;DHT22;23548;51.196;6.838;2024-02-26T15:41:13;8.70;99.90
37702;DHT22;23548;51.196;6.838;2024-02-26T15:43:39;8.70;99.90
37702;DHT22;23548;51.196;6.838;2024-02-26T15:46:05;8.60;99.90
37702;DHT22;23548;51.196;6.838;2024-02-26T15:48:31;8.70;99.90
37702;DHT22;23548;51.196;6.838;2024-02-26T15:50:58;8.60;99.90